createdAt,value
2024-03-04T00:01:01.380Z,8.84
2024-03-04T00:06:06.240Z,8.91
2024-03-04T00:11:09.250Z,8.98
2024-03-04T00:16:11.354Z,9.10
2024-03-04T00:21:13.389Z,9.14
2024-03-04T00:26:15.461Z,9.24
2024-03-04T00:31:17.548Z,9.40
2024-03-04T00:36:23.740Z,9.57
2024-03-04T00:41:27.038Z,9.54
2024-03-04T00:46:29.137Z,9.56
2024-03-04T00:51:31.144Z,9.62
2024-03-04T00:56:33.155Z,9.77
2024-03-04T01:01:35.560Z,9.73
2024-03-04T01:06:39.700Z,9.71
2024-03-04T01:11:42.101Z,9.79
2024-03-04T01:16:50.423Z,9.81
2024-03-04T01:21:52.421Z,9.78
2024-03-04T01:26:54.485Z,9.72
2024-03-04T01:31:56.493Z,9.88
2024-03-04T01:36:58.581Z,9.66
2024-03-04T01:42:01.275Z,9.61
2024-03-04T01:47:09.269Z,9.50
2024-03-04T01:52:12.958Z,9.55
2024-03-04T01:57:18.484Z,9.40
2024-03-04T02:02:21.093Z,9.56
2024-03-04T02:07:24.061Z,9.33
2024-03-04T02:12:26.279Z,9.49
2024-03-04T02:17:34.579Z,9.31
2024-03-04T02:22:37.264Z,9.24
2024-03-04T02:27:39.846Z,9.22
2024-03-04T02:32:43.080Z,9.11
2024-03-04T02:37:46.230Z,9.18
2024-03-04T02:42:48.343Z,9.16
2024-03-04T02:47:50.509Z,9.15
2024-03-04T02:52:52.676Z,9.12
2024-03-04T02:57:55.140Z,9.10
2024-03-04T03:02:57.618Z,9.10
2024-03-04T03:07:59.658Z,9.17
2024-03-04T03:13:01.711Z,9.20
2024-03-04T03:18:03.977Z,8.92
2024-03-04T03:23:06.118Z,8.81
2024-03-04T03:28:08.193Z,8.90
2024-03-04T03:33:12.624Z,8.92
2024-03-04T03:38:14.865Z,8.90
2024-03-04T03:43:18.672Z,8.84
2024-03-04T03:48:20.742Z,8.92
2024-03-04T03:53:24.463Z,8.79
2024-03-04T03:58:26.764Z,8.96
2024-03-04T04:03:29.854Z,9.02
2024-03-04T04:08:31.858Z,8.99
2024-03-04T04:13:33.935Z,8.98
2024-03-04T04:18:36.210Z,8.92
2024-03-04T04:23:38.281Z,8.87
2024-03-04T04:28:44.269Z,8.89
2024-03-04T04:33:46.298Z,8.78
2024-03-04T04:38:48.379Z,8.73
2024-03-04T04:43:50.356Z,8.74
2024-03-04T04:48:52.355Z,8.52
2024-03-04T04:53:54.343Z,8.55
2024-03-04T04:58:56.410Z,8.42
2024-03-04T05:04:14.398Z,8.34
2024-03-04T05:09:20.621Z,8.41
2024-03-04T05:14:23.022Z,8.31
2024-03-04T05:19:29.068Z,8.16
2024-03-04T05:24:31.137Z,8.26
2024-03-04T05:29:33.237Z,8.26
2024-03-04T05:34:35.471Z,8.18
2024-03-04T05:39:37.630Z,8.20
2024-03-04T05:44:39.879Z,8.24
2024-03-04T05:49:42.107Z,8.33
2024-03-04T05:54:44.256Z,8.36
2024-03-04T05:59:46.306Z,8.37
2024-03-04T06:04:48.458Z,8.28
2024-03-04T06:09:50.513Z,8.36
2024-03-04T06:14:52.630Z,8.33
2024-03-04T06:19:54.968Z,8.42
2024-03-04T06:24:57.027Z,8.33
2024-03-04T06:29:59.070Z,8.45
2024-03-04T06:35:01.230Z,8.39
2024-03-04T06:40:04.266Z,8.37
2024-03-04T06:45:06.696Z,8.23
2024-03-04T06:50:08.807Z,8.31
2024-03-04T06:55:10.970Z,8.41
2024-03-04T07:00:14.901Z,8.40
2024-03-04T07:05:17.102Z,8.42
2024-03-04T07:10:19.400Z,8.39
2024-03-04T07:15:21.423Z,8.40
2024-03-04T07:20:23.508Z,8.47
2024-03-04T07:25:25.662Z,8.47
2024-03-04T07:30:27.659Z,8.56
2024-03-04T07:35:29.684Z,8.69
2024-03-04T07:40:32.192Z,8.74
2024-03-04T07:45:34.289Z,8.65
2024-03-04T07:50:36.317Z,8.73
2024-03-04T07:55:38.474Z,8.74
2024-03-04T08:00:40.577Z,8.83
2024-03-04T08:05:45.311Z,8.92
2024-03-04T08:10:47.567Z,8.96
2024-03-04T08:15:50.213Z,9.05
2024-03-04T08:20:53.895Z,8.93
2024-03-04T08:25:56.126Z,8.95
2024-03-04T08:30:58.688Z,9.15
2024-03-04T08:36:00.700Z,9.22
2024-03-04T08:41:04.356Z,9.32
2024-03-04T08:46:06.448Z,9.24
2024-03-04T08:51:08.677Z,9.25
2024-03-04T08:56:10.786Z,9.21
2024-03-04T09:01:13.034Z,9.28
2024-03-04T09:06:19.607Z,9.26
2024-03-04T09:11:22.641Z,9.29
2024-03-04T09:16:24.884Z,9.35
2024-03-04T09:21:27.013Z,9.18
2024-03-04T09:26:29.138Z,9.21
2024-03-04T09:31:32.058Z,9.18
2024-03-04T09:36:34.087Z,9.25
2024-03-04T09:41:39.314Z,9.29
2024-03-04T09:46:42.442Z,9.35
2024-03-04T09:51:46.660Z,9.33
2024-03-04T09:56:49.031Z,9.53
2024-03-04T10:01:51.660Z,10.00
2024-03-04T10:06:53.799Z,10.12
2024-03-04T10:11:56.033Z,10.35
2024-03-04T10:16:58.482Z,10.61
2024-03-04T10:22:00.782Z,10.34
2024-03-04T10:27:04.103Z,10.44
2024-03-04T10:32:06.798Z,10.74
2024-03-04T10:37:09.347Z,10.78
2024-03-04T10:42:13.303Z,10.76
2024-03-04T10:47:16.413Z,10.80
2024-03-04T10:52:20.503Z,10.71
2024-03-04T10:57:28.297Z,10.40
2024-03-04T11:02:59.804Z,10.52
2024-03-04T11:08:17.658Z,10.63
2024-03-04T11:13:33.825Z,10.69
2024-03-04T11:19:20.884Z,10.66
2024-03-04T11:24:24.817Z,10.64
2024-03-04T11:29:28.472Z,10.75
2024-03-04T11:34:30.851Z,10.71
2024-03-04T11:39:32.887Z,10.76
2024-03-04T11:44:36.222Z,10.65
2024-03-04T11:49:49.214Z,10.68
2024-03-04T11:54:51.972Z,10.69
2024-03-04T12:00:11.512Z,10.82
2024-03-04T12:05:14.251Z,10.71
2024-03-04T12:10:17.984Z,10.52
2024-03-04T12:15:20.312Z,10.59
2024-03-04T12:20:22.522Z,10.47
2024-03-04T12:25:28.648Z,10.40
2024-03-04T12:30:32.149Z,10.28
2024-03-04T12:35:34.415Z,10.36
2024-03-04T12:40:37.583Z,10.31
2024-03-04T12:45:39.886Z,10.45
2024-03-04T12:50:44.336Z,10.52
2024-03-04T12:55:49.194Z,10.44
2024-03-04T13:00:51.894Z,10.44
2024-03-04T13:05:54.053Z,10.17
2024-03-04T13:10:56.105Z,10.14
2024-03-04T13:15:58.704Z,9.98
2024-03-04T13:21:04.203Z,9.91
2024-03-04T13:26:06.365Z,9.93
2024-03-04T13:31:08.684Z,9.73
2024-03-04T13:36:11.463Z,9.90
2024-03-04T13:41:14.160Z,9.91
2024-03-04T13:46:16.624Z,9.96
2024-03-04T13:51:18.628Z,9.88
2024-03-04T13:56:22.203Z,9.87
2024-03-04T14:01:25.293Z,9.98
2024-03-04T14:06:28.620Z,9.95
2024-03-04T14:11:31.298Z,9.61
2024-03-04T14:16:33.643Z,9.78
2024-03-04T14:21:35.735Z,9.77
2024-03-04T14:26:38.383Z,9.92
2024-03-04T14:31:40.558Z,9.71
2024-03-04T14:36:42.631Z,9.75
2024-03-04T14:41:44.675Z,9.68
2024-03-04T14:46:46.923Z,9.69
2024-03-04T14:51:48.986Z,9.68
2024-03-04T14:56:51.552Z,9.62
2024-03-04T15:01:53.561Z,9.74
2024-03-04T15:06:55.648Z,9.72
2024-03-04T15:11:57.735Z,9.75
2024-03-04T15:17:00.126Z,9.57
2024-03-04T15:22:02.599Z,9.56
2024-03-04T15:27:05.658Z,9.58
2024-03-04T15:32:07.752Z,9.45
2024-03-04T15:37:12.097Z,9.44
2024-03-04T15:42:14.623Z,9.49
2024-03-04T15:47:17.304Z,9.43
2024-03-04T15:52:19.684Z,9.50
2024-03-04T15:57:21.712Z,9.62
2024-03-04T16:02:23.686Z,9.61
2024-03-04T16:07:26.767Z,9.47
2024-03-04T16:12:29.582Z,9.38
2024-03-04T16:17:31.761Z,9.26
2024-03-04T16:22:36.815Z,9.41
2024-03-04T16:27:39.578Z,9.43
2024-03-04T16:32:44.533Z,9.41
2024-03-04T16:37:46.696Z,9.33
2024-03-04T16:42:48.886Z,9.40
2024-03-04T16:47:50.900Z,9.44
2024-03-04T16:52:55.483Z,9.44
2024-03-04T16:57:57.558Z,9.31
2024-03-04T17:02:59.747Z,9.26
2024-03-04T17:08:06.728Z,9.24
2024-03-04T17:13:10.767Z,9.03
2024-03-04T17:18:13.281Z,9.08
2024-03-04T17:23:16.271Z,9.18
2024-03-04T17:28:19.144Z,9.10
2024-03-04T17:33:22.976Z,9.01
2024-03-04T17:38:24.986Z,9.02
2024-03-04T17:43:27.129Z,8.80
2024-03-04T17:48:29.180Z,8.83
2024-03-04T17:53:34.120Z,8.84
2024-03-04T17:58:36.406Z,8.79
2024-03-04T18:03:38.468Z,8.83
2024-03-04T18:08:41.844Z,8.96
2024-03-04T18:13:43.958Z,8.87
2024-03-04T18:18:47.302Z,8.72
2024-03-04T18:23:51.858Z,8.69
2024-03-04T18:28:54.345Z,8.76
2024-03-04T18:33:56.794Z,8.89
2024-03-04T18:39:00.727Z,8.92
2024-03-04T18:44:04.274Z,8.94
2024-03-04T18:49:06.671Z,8.88
2024-03-04T18:54:08.850Z,8.85
2024-03-04T18:59:10.939Z,8.94
2024-03-04T19:04:13.054Z,8.95
2024-03-04T19:09:15.709Z,8.85
2024-03-04T19:14:18.101Z,8.79
2024-03-04T19:19:20.134Z,8.91
2024-03-04T19:24:22.221Z,8.89
2024-03-04T19:29:24.616Z,8.81
2024-03-04T19:34:27.716Z,8.65
2024-03-04T19:39:30.160Z,8.61
2024-03-04T19:44:32.423Z,8.59
2024-03-04T19:49:34.466Z,8.57
2024-03-04T19:54:38.862Z,8.59
2024-03-04T19:59:41.545Z,8.63
2024-03-04T20:04:44.611Z,8.63
2024-03-04T20:09:46.937Z,8.69
2024-03-04T20:14:48.991Z,8.75
2024-03-04T20:19:51.704Z,8.75
2024-03-04T20:24:54.565Z,8.69
2024-03-04T20:29:56.764Z,8.73
2024-03-04T20:34:58.840Z,8.69
2024-03-04T20:40:00.857Z,8.76
2024-03-04T20:45:04.762Z,8.72
2024-03-04T20:50:07.617Z,8.66
2024-03-04T20:55:12.531Z,8.80
2024-03-04T21:00:17.327Z,8.74
2024-03-04T21:05:25.662Z,8.79
2024-03-04T21:10:31.528Z,8.89
2024-03-04T21:15:34.155Z,8.92
2024-03-04T21:20:37.079Z,8.95
2024-03-04T21:25:41.753Z,8.94
2024-03-04T21:30:44.820Z,8.92
2024-03-04T21:35:47.014Z,8.89
2024-03-04T21:40:49.549Z,8.81
2024-03-04T21:45:52.776Z,8.74
2024-03-04T21:50:55.122Z,8.65
2024-03-04T21:55:58.175Z,8.52
2024-03-04T22:01:00.278Z,8.38
2024-03-04T22:06:03.214Z,8.27
2024-03-04T22:11:08.591Z,8.22
2024-03-04T22:16:11.472Z,8.20
2024-03-04T22:21:13.587Z,8.24
2024-03-04T22:26:15.561Z,8.09
2024-03-04T22:31:18.265Z,8.18
2024-03-04T22:36:20.952Z,8.35
2024-03-04T22:41:24.404Z,8.43
2024-03-04T22:46:26.458Z,8.48
2024-03-04T22:51:29.052Z,8.47
2024-03-04T22:56:31.161Z,8.58
2024-03-04T23:01:33.368Z,8.66
2024-03-04T23:06:35.439Z,8.73
2024-03-04T23:11:37.529Z,8.68
2024-03-04T23:16:39.780Z,8.62
2024-03-04T23:21:46.698Z,8.57
2024-03-04T23:26:48.723Z,8.56
2024-03-04T23:31:51.478Z,8.43
2024-03-04T23:36:55.236Z,8.32
2024-03-04T23:41:57.496Z,8.36
2024-03-04T23:46:59.664Z,8.45
2024-03-04T23:52:01.692Z,8.57
2024-03-04T23:57:03.770Z,8.59
